sensor_id;sensor_type;location;lat;lon;timestamp;temperature;humidity
13494;DHT22;6819;50.886;4.332;2024-01-27T00:00:06;3.90;99.90
13494;DHT22;6819;50.886;4.332;2024-01-27T00:02:31;3.90;99.90
13494;DHT22;6819;50.886;4.332;2024-01-27T00:04:57;3.90;99.90
13494;DHT22;6819;50.886;4.332;2024-01-27T00:07:23;3.80;99.90
13494;DHT22;6819;50.886;4.332;2024-01-27T00:09:50;3.80;99.90
13494;DHT22;6819;50.886;4.332;2024-01-27T00:12:16;3.80;99.90
13494;DHT22;6819;50.886;4.332;2024-01-27T00:14:41;3.80;99.90
13494;DHT22;6819;50.886;4.332;2024-01-27T00:17:09;3.80;99.90
13494;DHT22;6819;50.886;4.332;2024-01-27T00:19:34;3.80;99.90
13494;DHT22;6819;50.886;4.332;2024-01-27T00:22:00;3.80;99.90
13494;DHT22;6819;50.886;4.332;2024-01-27T00:24:26;3.70;99.90
13494;DHT22;6819;50.886;4.332;2024-01-27T00:26:52;3.70;99.90
13494;DHT22;6819;50.886;4.332;2024-01-27T00:29:17;3.70;99.90
13494;DHT22;6819;50.886;4.332;2024-01-27T00:31:43;3.60;99.90
13494;DHT22;6819;50.886;4.332;2024-01-27T00:34:08;3.60;99.90
13494;DHT22;6819;50.886;4.332;2024-01-27T00:36:34;3.60;99.90
13494;DHT22;6819;50.886;4.332;2024-01-27T00:39:03;3.50;99.90
13494;DHT22;6819;50.886;4.332;2024-01-27T00:41:29;3.50;99.90
13494;DHT22;6819;50.886;4.332;2024-01-27T00:43:54;3.50;99.90
13494;DHT22;6819;50.886;4.332;2024-01-27T00:46:20;3.50;99.90
13494;DHT22;6819;50.886;4.332;2024-01-27T00:48:46;3.50;99.90
13494;DHT22;6819;50.886;4.332;2024-01-27T00:51:12;3.50;99.90
13494;DHT22;6819;50.886;4.332;2024-01-27T00:53:38;3.50;99.90
13494;DHT22;6819;50.886;4.332;2024-01-27T00:56:04;3.60;99.90
13494;DHT22;6819;50.886;4.332;2024-01-27T00:58:30;3.50;99.90
13494;DHT22;6819;50.886;4.332;2024-01-27T01:00:57;3.50;99.90
13494;DHT22;6819;50.886;4.332;2024-01-27T01:03:23;3.50;99.90
13494;DHT22;6819;50.886;4.332;2024-01-27T01:05:49;3.50;99.90
13494;DHT22;6819;50.886;4.332;2024-01-27T01:08:15;3.50;99.90
13494;DHT22;6819;50.886;4.332;2024-01-27T01:10:41;3.40;99.90
13494;DHT22;6819;50.886;4.332;2024-01-27T01:13:07;3.40;99.90
13494;DHT22;6819;50.886;4.332;2024-01-27T01:15:32;3.30;99.90
13494;DHT22;6819;50.886;4.332;2024-01-27T01:17:58;3.30;99.90
13494;DHT22;6819;50.886;4.332;2024-01-27T01:20:24;3.30;99.90
13494;DHT22;6819;50.886;4.332;2024-01-27T01:22:51;3.30;99.90
13494;DHT22;6819;50.886;4.332;2024-01-27T01:25:17;3.20;99.90
13494;DHT22;6819;50.886;4.332;2024-01-27T01:27:43;3.20;99.90
13494;DHT22;6819;50.886;4.332;2024-01-27T01:30:09;3.20;99.90
13494;DHT22;6819;50.886;4.332;2024-01-27T01:32:35;3.10;99.90
13494;DHT22;6819;50.886;4.332;2024-01-27T01:35:00;3.10;99.90
13494;DHT22;6819;50.886;4.332;2024-01-27T01:37:26;3.10;99.90
13494;DHT22;6819;50.886;4.332;2024-01-27T01:39:52;3.10;99.90
13494;DHT22;6819;50.886;4.332;2024-01-27T01:42:17;3.10;99.90
13494;DHT22;6819;50.886;4.332;2024-01-27T01:44:45;3.10;99.90
13494;DHT22;6819;50.886;4.332;2024-01-27T01:47:11;3.10;99.90
13494;DHT22;6819;50.886;4.332;2024-01-27T01:49:37;3.10;99.90
13494;DHT22;6819;50.886;4.332;2024-01-27T01:52:03;3.00;99.90
13494;DHT22;6819;50.886;4.332;2024-01-27T01:54:29;3.00;99.90
13494;DHT22;6819;50.886;4.332;2024-01-27T01:56:58;3.00;99.90
13494;DHT22;6819;50.886;4.332;2024-01-27T01:59:24;3.00;99.90
13494;DHT22;6819;50.886;4.332;2024-01-27T02:01:50;3.00;99.90
13494;DHT22;6819;50.886;4.332;2024-01-27T02:04:15;3.00;99.90
13494;DHT22;6819;50.886;4.332;2024-01-27T02:06:41;3.00;99.90
13494;DHT22;6819;50.886;4.332;2024-01-27T02:09:07;3.00;99.90
13494;DHT22;6819;50.886;4.332;2024-01-27T02:11:32;3.00;99.90
13494;DHT22;6819;50.886;4.332;2024-01-27T02:13:58;3.00;99.90
13494;DHT22;6819;50.886;4.332;2024-01-27T02:16:24;3.00;99.90
13494;DHT22;6819;50.886;4.332;2024-01-27T02:18:49;2.90;99.90
13494;DHT22;6819;50.886;4.332;2024-01-27T02:21:15;3.00;99.90
13494;DHT22;6819;50.886;4.332;2024-01-27T02:23:41;2.90;99.90
13494;DHT22;6819;50.886;4.332;2024-01-27T02:26:06;2.90;99.90
13494;DHT22;6819;50.886;4.332;2024-01-27T02:28:32;2.90;99.90
13494;DHT22;6819;50.886;4.332;2024-01-27T02:30:59;2.90;99.90
13494;DHT22;6819;50.886;4.332;2024-01-27T02:33:28;2.90;99.90
13494;DHT22;6819;50.886;4.332;2024-01-27T02:35:54;2.80;99.90
13494;DHT22;6819;50.886;4.332;2024-01-27T02:38:20;2.80;99.90
13494;DHT22;6819;50.886;4.332;2024-01-27T02:40:46;2.80;99.90
13494;DHT22;6819;50.886;4.332;2024-01-27T02:43:11;2.80;99.90
13494;DHT22;6819;50.886;4.332;2024-01-27T02:45:37;2.80;99.90
13494;DHT22;6819;50.886;4.332;2024-01-27T02:48:03;2.70;99.90
13494;DHT22;6819;50.886;4.332;2024-01-27T02:50:29;2.80;99.90
13494;DHT22;6819;50.886;4.332;2024-01-27T02:52:54;2.70;99.90
13494;DHT22;6819;50.886;4.332;2024-01-27T02:55:20;2.80;99.90
13494;DHT22;6819;50.886;4.332;2024-01-27T02:57:46;2.80;99.90
13494;DHT22;6819;50.886;4.332;2024-01-27T03:00:11;2.70;99.90
13494;DHT22;6819;50.886;4.332;2024-01-27T03:02:37;2.70;99.90
13494;DHT22;6819;50.886;4.332;2024-01-27T03:05:03;2.70;99.90
13494;DHT22;6819;50.886;4.332;2024-01-27T03:07:29;2.70;99.90
13494;DHT22;6819;50.886;4.332;2024-01-27T03:09:54;2.70;99.90
13494;DHT22;6819;50.886;4.332;2024-01-27T03:12:20;2.70;99.90
13494;DHT22;6819;50.886;4.332;2024-01-27T03:14:48;2.70;99.90
13494;DHT22;6819;50.886;4.332;2024-01-27T03:17:15;2.70;99.90
13494;DHT22;6819;50.886;4.332;2024-01-27T03:19:41;2.70;99.90
13494;DHT22;6819;50.886;4.332;2024-01-27T03:22:06;2.60;99.90
13494;DHT22;6819;50.886;4.332;2024-01-27T03:24:32;2.60;99.90
13494;DHT22;6819;50.886;4.332;2024-01-27T03:26:58;2.60;99.90
13494;DHT22;6819;50.886;4.332;2024-01-27T03:29:23;2.60;99.90
13494;DHT22;6819;50.886;4.332;2024-01-27T03:31:49;2.60;99.90
13494;DHT22;6819;50.886;4.332;2024-01-27T03:34:15;2.60;99.90
13494;DHT22;6819;50.886;4.332;2024-01-27T03:36:41;2.60;99.90
13494;DHT22;6819;50.886;4.332;2024-01-27T03:39:06;2.50;99.90
13494;DHT22;6819;50.886;4.332;2024-01-27T03:41:33;2.50;99.90
13494;DHT22;6819;50.886;4.332;2024-01-27T03:43:59;2.50;99.90
13494;DHT22;6819;50.886;4.332;2024-01-27T03:46:24;2.50;99.90
13494;DHT22;6819;50.886;4.332;2024-01-27T03:48:50;2.50;99.90
13494;DHT22;6819;50.886;4.332;2024-01-27T03:51:16;2.50;99.90
13494;DHT22;6819;50.886;4.332;2024-01-27T03:53:41;2.50;99.90
13494;DHT22;6819;50.886;4.332;2024-01-27T03:56:10;2.50;99.90
13494;DHT22;6819;50.886;4.332;2024-01-27T03:58:36;2.50;99.90
13494;DHT22;6819;50.886;4.332;2024-01-27T04:01:04;2.60;99.90
13494;DHT22;6819;50.886;4.332;2024-01-27T04:03:29;2.60;99.90
13494;DHT22;6819;50.886;4.332;2024-01-27T04:05:55;2.50;99.90
13494;DHT22;6819;50.886;4.332;2024-01-27T04:08:21;2.50;99.90
13494;DHT22;6819;50.886;4.332;2024-01-27T04:10:46;2.40;99.90
13494;DHT22;6819;50.886;4.332;2024-01-27T04:13:12;2.50;99.90
13494;DHT22;6819;50.886;4.332;2024-01-27T04:15:38;2.50;99.90
13494;DHT22;6819;50.886;4.332;2024-01-27T04:18:07;2.50;99.90
13494;DHT22;6819;50.886;4.332;2024-01-27T04:20:34;2.50;99.90
13494;DHT22;6819;50.886;4.332;2024-01-27T04:23:00;2.40;99.90
13494;DHT22;6819;50.886;4.332;2024-01-27T04:25:26;2.40;99.90
13494;DHT22;6819;50.886;4.332;2024-01-27T04:27:51;2.40;99.90
13494;DHT22;6819;50.886;4.332;2024-01-27T04:30:17;2.40;99.90
13494;DHT22;6819;50.886;4.332;2024-01-27T04:32:43;2.40;99.90
13494;DHT22;6819;50.886;4.332;2024-01-27T04:35:09;2.40;99.90
13494;DHT22;6819;50.886;4.332;2024-01-27T04:37:35;2.40;99.90
13494;DHT22;6819;50.886;4.332;2024-01-27T04:40:03;2.40;99.90
13494;DHT22;6819;50.886;4.332;2024-01-27T04:42:28;2.40;99.90
13494;DHT22;6819;50.886;4.332;2024-01-27T04:44:54;2.40;99.90
13494;DHT22;6819;50.886;4.332;2024-01-27T04:47:20;2.40;99.90
13494;DHT22;6819;50.886;4.332;2024-01-27T04:49:46;2.40;99.90
13494;DHT22;6819;50.886;4.332;2024-01-27T04:52:11;2.40;99.90
13494;DHT22;6819;50.886;4.332;2024-01-27T04:54:37;2.40;99.90
13494;DHT22;6819;50.886;4.332;2024-01-27T04:57:03;2.40;99.90
13494;DHT22;6819;50.886;4.332;2024-01-27T04:59:28;2.40;99.90
13494;DHT22;6819;50.886;4.332;2024-01-27T05:01:54;2.40;99.90
13494;DHT22;6819;50.886;4.332;2024-01-27T05:04:20;2.40;99.90
13494;DHT22;6819;50.886;4.332;2024-01-27T05:06:46;2.40;99.90
13494;DHT22;6819;50.886;4.332;2024-01-27T05:09:11;2.40;99.90
13494;DHT22;6819;50.886;4.332;2024-01-27T05:11:37;2.40;99.90
13494;DHT22;6819;50.886;4.332;2024-01-27T05:14:03;2.40;99.90
13494;DHT22;6819;50.886;4.332;2024-01-27T05:16:29;2.40;99.90
13494;DHT22;6819;50.886;4.332;2024-01-27T05:18:55;2.40;99.90
13494;DHT22;6819;50.886;4.332;2024-01-27T05:21:20;2.40;99.90
13494;DHT22;6819;50.886;4.332;2024-01-27T05:23:46;2.50;99.90
13494;DHT22;6819;50.886;4.332;2024-01-27T05:26:12;2.50;99.90
13494;DHT22;6819;50.886;4.332;2024-01-27T05:28:38;2.50;99.90
13494;DHT22;6819;50.886;4.332;2024-01-27T05:31:08;2.50;99.90
13494;DHT22;6819;50.886;4.332;2024-01-27T05:33:37;2.50;99.90
13494;DHT22;6819;50.886;4.332;2024-01-27T05:36:03;2.50;99.90
13494;DHT22;6819;50.886;4.332;2024-01-27T05:38:29;2.50;99.90
13494;DHT22;6819;50.886;4.332;2024-01-27T05:40:58;2.50;99.90
13494;DHT22;6819;50.886;4.332;2024-01-27T05:43:25;2.50;99.90
13494;DHT22;6819;50.886;4.332;2024-01-27T05:45:51;2.40;99.90
13494;DHT22;6819;50.886;4.332;2024-01-27T05:48:17;2.40;99.90
13494;DHT22;6819;50.886;4.332;2024-01-27T05:50:43;2.40;99.90
13494;DHT22;6819;50.886;4.332;2024-01-27T05:53:09;2.40;99.90
13494;DHT22;6819;50.886;4.332;2024-01-27T05:55:34;2.40;99.90
13494;DHT22;6819;50.886;4.332;2024-01-27T05:58:00;2.40;99.90
13494;DHT22;6819;50.886;4.332;2024-01-27T06:00:26;2.30;99.90
13494;DHT22;6819;50.886;4.332;2024-01-27T06:02:51;2.30;99.90
13494;DHT22;6819;50.886;4.332;2024-01-27T06:05:17;2.30;99.90
13494;DHT22;6819;50.886;4.332;2024-01-27T06:07:43;2.30;99.90
13494;DHT22;6819;50.886;4.332;2024-01-27T06:10:09;2.30;99.90
13494;DHT22;6819;50.886;4.332;2024-01-27T06:12:35;2.30;99.90
13494;DHT22;6819;50.886;4.332;2024-01-27T06:15:01;2.30;99.90
13494;DHT22;6819;50.886;4.332;2024-01-27T06:17:27;2.30;99.90
13494;DHT22;6819;50.886;4.332;2024-01-27T06:19:52;2.30;99.90
13494;DHT22;6819;50.886;4.332;2024-01-27T06:22:18;2.30;99.90
13494;DHT22;6819;50.886;4.332;2024-01-27T06:24:44;2.30;99.90
13494;DHT22;6819;50.886;4.332;2024-01-27T06:27:10;2.30;99.90
13494;DHT22;6819;50.886;4.332;2024-01-27T06:29:36;2.30;99.90
13494;DHT22;6819;50.886;4.332;2024-01-27T06:32:02;2.30;99.90
13494;DHT22;6819;50.886;4.332;2024-01-27T06:34:28;2.30;99.90
13494;DHT22;6819;50.886;4.332;2024-01-27T06:36:54;2.30;99.90
13494;DHT22;6819;50.886;4.332;2024-01-27T06:39:19;2.20;99.90
13494;DHT22;6819;50.886;4.332;2024-01-27T06:41:47;2.30;99.90
13494;DHT22;6819;50.886;4.332;2024-01-27T06:44:13;2.30;99.90
13494;DHT22;6819;50.886;4.332;2024-01-27T06:46:38;2.20;99.90
13494;DHT22;6819;50.886;4.332;2024-01-27T06:49:04;2.20;99.90
13494;DHT22;6819;50.886;4.332;2024-01-27T06:51:29;2.20;99.90
13494;DHT22;6819;50.886;4.332;2024-01-27T06:53:55;2.30;99.90
13494;DHT22;6819;50.886;4.332;2024-01-27T06:56:21;2.40;99.90
13494;DHT22;6819;50.886;4.332;2024-01-27T06:58:46;2.30;99.90
13494;DHT22;6819;50.886;4.332;2024-01-27T07:01:12;2.30;99.90
13494;DHT22;6819;50.886;4.332;2024-01-27T07:03:37;2.30;99.90
13494;DHT22;6819;50.886;4.332;2024-01-27T07:06:05;2.30;99.90
13494;DHT22;6819;50.886;4.332;2024-01-27T07:08:31;2.30;99.90
13494;DHT22;6819;50.886;4.332;2024-01-27T07:10:58;2.30;99.90
13494;DHT22;6819;50.886;4.332;2024-01-27T07:13:23;2.30;99.90
13494;DHT22;6819;50.886;4.332;2024-01-27T07:15:49;2.40;99.90
13494;DHT22;6819;50.886;4.332;2024-01-27T07:18:15;2.30;99.90
13494;DHT22;6819;50.886;4.332;2024-01-27T07:20:40;2.40;99.90
13494;DHT22;6819;50.886;4.332;2024-01-27T07:23:06;2.40;99.90
13494;DHT22;6819;50.886;4.332;2024-01-27T07:25:32;2.40;99.90
13494;DHT22;6819;50.886;4.332;2024-01-27T07:27:57;2.40;99.90
13494;DHT22;6819;50.886;4.332;2024-01-27T07:30:23;2.50;99.90
13494;DHT22;6819;50.886;4.332;2024-01-27T07:32:49;2.50;99.90
13494;DHT22;6819;50.886;4.332;2024-01-27T07:35:14;2.40;99.90
13494;DHT22;6819;50.886;4.332;2024-01-27T07:37:41;2.40;99.90
13494;DHT22;6819;50.886;4.332;2024-01-27T07:40:07;2.40;99.90
13494;DHT22;6819;50.886;4.332;2024-01-27T07:42:34;2.40;99.90
13494;DHT22;6819;50.886;4.332;2024-01-27T07:45:00;2.50;99.90
13494;DHT22;6819;50.886;4.332;2024-01-27T07:47:25;2.50;99.90
13494;DHT22;6819;50.886;4.332;2024-01-27T07:49:51;2.50;99.90
13494;DHT22;6819;50.886;4.332;2024-01-27T07:52:17;2.60;99.90
13494;DHT22;6819;50.886;4.332;2024-01-27T07:54:43;2.60;99.90
13494;DHT22;6819;50.886;4.332;2024-01-27T07:57:09;2.60;99.90
13494;DHT22;6819;50.886;4.332;2024-01-27T07:59:35;2.70;99.90
13494;DHT22;6819;50.886;4.332;2024-01-27T08:02:01;2.70;99.90
13494;DHT22;6819;50.886;4.332;2024-01-27T08:04:27;2.70;99.90
13494;DHT22;6819;50.886;4.332;2024-01-27T08:06:53;2.70;99.90
13494;DHT22;6819;50.886;4.332;2024-01-27T08:09:19;2.70;99.90
13494;DHT22;6819;50.886;4.332;2024-01-27T08:11:45;2.80;99.90
13494;DHT22;6819;50.886;4.332;2024-01-27T08:14:11;2.80;99.90
13494;DHT22;6819;50.886;4.332;2024-01-27T08:16:37;2.80;99.90
13494;DHT22;6819;50.886;4.332;2024-01-27T08:19:03;2.80;99.90
13494;DHT22;6819;50.886;4.332;2024-01-27T08:21:28;2.80;99.90
13494;DHT22;6819;50.886;4.332;2024-01-27T08:23:54;2.80;99.90
13494;DHT22;6819;50.886;4.332;2024-01-27T08:26:20;2.90;99.90
13494;DHT22;6819;50.886;4.332;2024-01-27T08:28:47;2.90;99.90
13494;DHT22;6819;50.886;4.332;2024-01-27T08:31:12;2.90;99.90
13494;DHT22;6819;50.886;4.332;2024-01-27T08:33:38;3.00;99.90
13494;DHT22;6819;50.886;4.332;2024-01-27T08:36:04;3.00;99.90
13494;DHT22;6819;50.886;4.332;2024-01-27T08:38:30;3.10;99.90
13494;DHT22;6819;50.886;4.332;2024-01-27T08:40:55;3.30;99.90
13494;DHT22;6819;50.886;4.332;2024-01-27T08:43:21;3.30;99.90
13494;DHT22;6819;50.886;4.332;2024-01-27T08:45:47;3.30;99.90
13494;DHT22;6819;50.886;4.332;2024-01-27T08:48:12;3.30;99.90
13494;DHT22;6819;50.886;4.332;2024-01-27T08:50:38;3.30;99.90
13494;DHT22;6819;50.886;4.332;2024-01-27T08:53:05;3.40;99.90
13494;DHT22;6819;50.886;4.332;2024-01-27T08:55:30;3.40;99.90
13494;DHT22;6819;50.886;4.332;2024-01-27T08:57:56;3.50;99.90
13494;DHT22;6819;50.886;4.332;2024-01-27T09:00:22;3.60;99.90
13494;DHT22;6819;50.886;4.332;2024-01-27T09:02:48;3.60;99.90
13494;DHT22;6819;50.886;4.332;2024-01-27T09:05:14;3.70;99.90
13494;DHT22;6819;50.886;4.332;2024-01-27T09:07:40;3.80;99.90
13494;DHT22;6819;50.886;4.332;2024-01-27T09:10:06;3.80;99.90
13494;DHT22;6819;50.886;4.332;2024-01-27T09:12:32;4.00;99.90
13494;DHT22;6819;50.886;4.332;2024-01-27T09:14:58;4.00;99.90
13494;DHT22;6819;50.886;4.332;2024-01-27T09:17:24;4.10;99.90
13494;DHT22;6819;50.886;4.332;2024-01-27T09:19:49;4.10;99.90
13494;DHT22;6819;50.886;4.332;2024-01-27T09:22:16;4.20;99.90
13494;DHT22;6819;50.886;4.332;2024-01-27T09:24:42;4.30;99.90
13494;DHT22;6819;50.886;4.332;2024-01-27T09:27:07;4.40;99.90
13494;DHT22;6819;50.886;4.332;2024-01-27T09:29:33;4.50;99.90
13494;DHT22;6819;50.886;4.332;2024-01-27T09:31:59;4.60;99.90
13494;DHT22;6819;50.886;4.332;2024-01-27T09:34:24;4.80;99.90
13494;DHT22;6819;50.886;4.332;2024-01-27T09:36:50;4.80;99.90
13494;DHT22;6819;50.886;4.332;2024-01-27T09:39:16;4.90;99.90
13494;DHT22;6819;50.886;4.332;2024-01-27T09:41:42;4.90;99.90
13494;DHT22;6819;50.886;4.332;2024-01-27T09:44:10;5.10;99.90
13494;DHT22;6819;50.886;4.332;2024-01-27T09:46:38;5.30;99.90
13494;DHT22;6819;50.886;4.332;2024-01-27T09:49:04;5.50;99.90
13494;DHT22;6819;50.886;4.332;2024-01-27T09:51:30;5.70;99.90
13494;DHT22;6819;50.886;4.332;2024-01-27T09:53:56;5.70;99.90
13494;DHT22;6819;50.886;4.332;2024-01-27T09:56:22;5.80;99.90
13494;DHT22;6819;50.886;4.332;2024-01-27T09:58:49;5.90;99.90
13494;DHT22;6819;50.886;4.332;2024-01-27T10:01:19;6.00;99.90
13494;DHT22;6819;50.886;4.332;2024-01-27T10:03:46;6.20;99.90
13494;DHT22;6819;50.886;4.332;2024-01-27T10:06:11;6.30;99.90
13494;DHT22;6819;50.886;4.332;2024-01-27T10:08:37;6.10;99.90
13494;DHT22;6819;50.886;4.332;2024-01-27T10:11:09;6.10;99.90
13494;DHT22;6819;50.886;4.332;2024-01-27T10:13:39;6.00;99.90
13494;DHT22;6819;50.886;4.332;2024-01-27T10:16:08;6.20;99.90
13494;DHT22;6819;50.886;4.332;2024-01-27T10:18:34;6.60;99.90
13494;DHT22;6819;50.886;4.332;2024-01-27T10:21:17;6.50;99.90
13494;DHT22;6819;50.886;4.332;2024-01-27T10:23:45;6.50;99.90
13494;DHT22;6819;50.886;4.332;2024-01-27T10:26:11;6.50;99.90
13494;DHT22;6819;50.886;4.332;2024-01-27T10:28:37;6.50;99.90
13494;DHT22;6819;50.886;4.332;2024-01-27T10:31:12;6.70;99.90
13494;DHT22;6819;50.886;4.332;2024-01-27T10:33:38;6.70;99.90
13494;DHT22;6819;50.886;4.332;2024-01-27T10:36:05;6.50;99.90
13494;DHT22;6819;50.886;4.332;2024-01-27T10:38:38;6.60;99.90
13494;DHT22;6819;50.886;4.332;2024-01-27T10:41:08;6.80;99.90
13494;DHT22;6819;50.886;4.332;2024-01-27T10:43:36;6.80;99.90
13494;DHT22;6819;50.886;4.332;2024-01-27T10:46:06;6.90;99.90
13494;DHT22;6819;50.886;4.332;2024-01-27T10:48:36;6.90;99.90
13494;DHT22;6819;50.886;4.332;2024-01-27T10:51:09;6.90;99.90
13494;DHT22;6819;50.886;4.332;2024-01-27T10:53:36;6.80;99.90
13494;DHT22;6819;50.886;4.332;2024-01-27T10:56:03;7.10;99.90
13494;DHT22;6819;50.886;4.332;2024-01-27T10:58:34;7.40;99.90
13494;DHT22;6819;50.886;4.332;2024-01-27T11:01:09;7.50;99.90
13494;DHT22;6819;50.886;4.332;2024-01-27T11:03:39;7.60;99.90
13494;DHT22;6819;50.886;4.332;2024-01-27T11:06:09;7.60;99.90
13494;DHT22;6819;50.886;4.332;2024-01-27T11:08:38;7.70;99.90
13494;DHT22;6819;50.886;4.332;2024-01-27T11:11:04;7.70;99.90
13494;DHT22;6819;50.886;4.332;2024-01-27T11:13:32;8.00;99.90
13494;DHT22;6819;50.886;4.332;2024-01-27T11:15:58;8.00;99.90
13494;DHT22;6819;50.886;4.332;2024-01-27T11:18:24;8.10;99.90
13494;DHT22;6819;50.886;4.332;2024-01-27T11:20:54;8.00;99.90
13494;DHT22;6819;50.886;4.332;2024-01-27T11:23:20;7.90;99.90
13494;DHT22;6819;50.886;4.332;2024-01-27T11:25:45;8.00;99.90
13494;DHT22;6819;50.886;4.332;2024-01-27T11:28:16;8.10;99.90
13494;DHT22;6819;50.886;4.332;2024-01-27T11:30:48;8.10;99.90
13494;DHT22;6819;50.886;4.332;2024-01-27T11:33:14;8.30;99.90
13494;DHT22;6819;50.886;4.332;2024-01-27T11:35:40;8.10;99.90
13494;DHT22;6819;50.886;4.332;2024-01-27T11:38:06;8.10;99.90
13494;DHT22;6819;50.886;4.332;2024-01-27T11:40:32;8.10;99.90
13494;DHT22;6819;50.886;4.332;2024-01-27T11:43:01;8.20;99.90
13494;DHT22;6819;50.886;4.332;2024-01-27T11:45:27;8.00;99.90
13494;DHT22;6819;50.886;4.332;2024-01-27T11:47:56;7.90;99.90
13494;DHT22;6819;50.886;4.332;2024-01-27T11:50:22;8.00;99.90
13494;DHT22;6819;50.886;4.332;2024-01-27T11:52:48;8.20;99.90
13494;DHT22;6819;50.886;4.332;2024-01-27T11:55:14;8.40;99.90
13494;DHT22;6819;50.886;4.332;2024-01-27T11:57:41;8.60;99.90
13494;DHT22;6819;50.886;4.332;2024-01-27T12:00:08;8.70;99.90
13494;DHT22;6819;50.886;4.332;2024-01-27T12:02:35;8.70;99.90
13494;DHT22;6819;50.886;4.332;2024-01-27T12:05:01;8.80;99.90
13494;DHT22;6819;50.886;4.332;2024-01-27T12:07:27;9.20;99.90
13494;DHT22;6819;50.886;4.332;2024-01-27T12:09:53;9.70;99.90
13494;DHT22;6819;50.886;4.332;2024-01-27T12:12:20;9.50;99.90
13494;DHT22;6819;50.886;4.332;2024-01-27T12:14:50;9.50;99.90
13494;DHT22;6819;50.886;4.332;2024-01-27T12:17:16;9.80;99.90
13494;DHT22;6819;50.886;4.332;2024-01-27T12:19:49;9.60;99.90
13494;DHT22;6819;50.886;4.332;2024-01-27T12:22:33;9.70;99.90
13494;DHT22;6819;50.886;4.332;2024-01-27T12:25:10;9.80;99.90
13494;DHT22;6819;50.886;4.332;2024-01-27T12:27:36;9.60;99.90
13494;DHT22;6819;50.886;4.332;2024-01-27T12:30:02;9.60;99.90
13494;DHT22;6819;50.886;4.332;2024-01-27T12:32:28;9.90;99.90
13494;DHT22;6819;50.886;4.332;2024-01-27T12:34:54;10.20;99.90
13494;DHT22;6819;50.886;4.332;2024-01-27T12:37:21;10.50;99.90
13494;DHT22;6819;50.886;4.332;2024-01-27T12:39:47;10.00;99.90
13494;DHT22;6819;50.886;4.332;2024-01-27T12:42:16;10.20;99.90
13494;DHT22;6819;50.886;4.332;2024-01-27T12:44:43;10.80;99.90
13494;DHT22;6819;50.886;4.332;2024-01-27T12:47:10;11.50;99.90
13494;DHT22;6819;50.886;4.332;2024-01-27T12:49:35;12.10;99.90
13494;DHT22;6819;50.886;4.332;2024-01-27T12:52:02;12.90;99.90
13494;DHT22;6819;50.886;4.332;2024-01-27T12:54:27;12.00;99.90
13494;DHT22;6819;50.886;4.332;2024-01-27T12:56:53;11.30;99.90
13494;DHT22;6819;50.886;4.332;2024-01-27T12:59:19;12.10;99.90
13494;DHT22;6819;50.886;4.332;2024-01-27T13:01:44;12.30;99.90
13494;DHT22;6819;50.886;4.332;2024-01-27T13:04:10;12.40;99.90
13494;DHT22;6819;50.886;4.332;2024-01-27T13:06:36;12.30;99.90
13494;DHT22;6819;50.886;4.332;2024-01-27T13:09:02;11.10;99.90
13494;DHT22;6819;50.886;4.332;2024-01-27T13:11:28;11.90;99.90
13494;DHT22;6819;50.886;4.332;2024-01-27T13:13:54;12.50;99.90
13494;DHT22;6819;50.886;4.332;2024-01-27T13:16:19;13.10;99.90
13494;DHT22;6819;50.886;4.332;2024-01-27T13:18:45;13.60;99.90
13494;DHT22;6819;50.886;4.332;2024-01-27T13:21:11;13.20;99.90
13494;DHT22;6819;50.886;4.332;2024-01-27T13:23:37;12.70;99.90
13494;DHT22;6819;50.886;4.332;2024-01-27T13:26:03;13.30;99.90
13494;DHT22;6819;50.886;4.332;2024-01-27T13:28:29;13.40;99.90
13494;DHT22;6819;50.886;4.332;2024-01-27T13:30:55;13.30;99.90
13494;DHT22;6819;50.886;4.332;2024-01-27T13:33:21;13.60;99.90
13494;DHT22;6819;50.886;4.332;2024-01-27T13:35:47;13.60;99.90
13494;DHT22;6819;50.886;4.332;2024-01-27T13:38:16;13.40;99.90
13494;DHT22;6819;50.886;4.332;2024-01-27T13:40:46;13.00;99.90
13494;DHT22;6819;50.886;4.332;2024-01-27T13:43:11;12.80;99.90
13494;DHT22;6819;50.886;4.332;2024-01-27T13:45:37;12.70;99.90
13494;DHT22;6819;50.886;4.332;2024-01-27T13:48:03;12.80;99.90
13494;DHT22;6819;50.886;4.332;2024-01-27T13:50:29;12.90;99.90
13494;DHT22;6819;50.886;4.332;2024-01-27T13:52:57;13.10;99.90
13494;DHT22;6819;50.886;4.332;2024-01-27T13:55:23;13.10;99.90
13494;DHT22;6819;50.886;4.332;2024-01-27T13:57:50;13.60;99.90
13494;DHT22;6819;50.886;4.332;2024-01-27T14:00:16;14.10;99.90
13494;DHT22;6819;50.886;4.332;2024-01-27T14:02:42;14.70;99.90
13494;DHT22;6819;50.886;4.332;2024-01-27T14:05:08;14.10;99.90
13494;DHT22;6819;50.886;4.332;2024-01-27T14:07:34;14.10;99.90
13494;DHT22;6819;50.886;4.332;2024-01-27T14:10:00;13.90;99.90
13494;DHT22;6819;50.886;4.332;2024-01-27T14:12:26;14.20;99.90
13494;DHT22;6819;50.886;4.332;2024-01-27T14:14:52;14.40;99.90
13494;DHT22;6819;50.886;4.332;2024-01-27T14:17:18;14.20;99.90
13494;DHT22;6819;50.886;4.332;2024-01-27T14:19:46;14.10;99.90
13494;DHT22;6819;50.886;4.332;2024-01-27T14:22:12;14.00;99.90
13494;DHT22;6819;50.886;4.332;2024-01-27T14:24:38;13.90;99.90
13494;DHT22;6819;50.886;4.332;2024-01-27T14:27:07;13.50;99.90
13494;DHT22;6819;50.886;4.332;2024-01-27T14:29:33;13.40;99.90
13494;DHT22;6819;50.886;4.332;2024-01-27T14:32:00;12.90;99.90
13494;DHT22;6819;50.886;4.332;2024-01-27T14:34:26;13.00;99.90
13494;DHT22;6819;50.886;4.332;2024-01-27T14:36:52;12.60;99.90
13494;DHT22;6819;50.886;4.332;2024-01-27T14:39:18;11.80;99.90
13494;DHT22;6819;50.886;4.332;2024-01-27T14:41:44;11.40;99.90
13494;DHT22;6819;50.886;4.332;2024-01-27T14:44:10;11.00;99.90
13494;DHT22;6819;50.886;4.332;2024-01-27T14:46:37;10.70;99.90
13494;DHT22;6819;50.886;4.332;2024-01-27T14:49:06;10.30;99.90
13494;DHT22;6819;50.886;4.332;2024-01-27T14:51:34;9.90;99.90
13494;DHT22;6819;50.886;4.332;2024-01-27T14:54:00;9.80;99.90
13494;DHT22;6819;50.886;4.332;2024-01-27T14:56:30;9.70;99.90
13494;DHT22;6819;50.886;4.332;2024-01-27T14:58:56;9.60;99.90
13494;DHT22;6819;50.886;4.332;2024-01-27T15:01:22;9.70;99.90
13494;DHT22;6819;50.886;4.332;2024-01-27T15:03:48;9.70;99.90
13494;DHT22;6819;50.886;4.332;2024-01-27T15:06:14;9.60;99.90
13494;DHT22;6819;50.886;4.332;2024-01-27T15:08:40;9.30;99.90
13494;DHT22;6819;50.886;4.332;2024-01-27T15:11:06;9.30;99.90
13494;DHT22;6819;50.886;4.332;2024-01-27T15:13:32;9.20;99.90
13494;DHT22;6819;50.886;4.332;2024-01-27T15:15:58;9.20;99.90
13494;DHT22;6819;50.886;4.332;2024-01-27T15:18:24;8.90;99.90
13494;DHT22;6819;50.886;4.332;2024-01-27T15:20:50;8.60;99.90
13494;DHT22;6819;50.886;4.332;2024-01-27T15:23:15;8.50;99.90
13494;DHT22;6819;50.886;4.332;2024-01-27T15:25:41;8.50;99.90
13494;DHT22;6819;50.886;4.332;2024-01-27T15:28:07;8.60;99.90
13494;DHT22;6819;50.886;4.332;2024-01-27T15:30:33;8.60;99.90
13494;DHT22;6819;50.886;4.332;2024-01-27T15:32:59;8.60;99.90
13494;DHT22;6819;50.886;4.332;2024-01-27T15:35:25;8.60;99.90
13494;DHT22;6819;50.886;4.332;2024-01-27T15:37:50;8.50;99.90
13494;DHT22;6819;50.886;4.332;2024-01-27T15:40:16;8.50;99.90
13494;DHT22;6819;50.886;4.332;2024-01-27T15:42:42;8.50;99.90
13494;DHT22;6819;50.886;4.332;2024-01-27T15:45:08;8.50;99.90
13494;DHT22;6819;50.886;4.332;2024-01-27T15:47:34;8.50;99.90
13494;DHT22;6819;50.886;4.332;2024-01-27T15:49:59;8.50;99.90
13494;DHT22;6819;50.886;4.332;2024-01-27T15:52:30;8.50;99.90